South Beloit, Illinois
Current Conditions -  °F | °C
As of 9:45 AM on Thursday 27 Nov 2014 (Local Time) from KJVL Reporting Station
Broken Clouds Broken Clouds  
Wind Chill: 13°   Ceiling: 2100
Heat Index: 25°   Visibility: 10mi
Dew Point: 18°   Wind: 13mph
Humidity: 74%   Direction: 330°NNW
Pressure: 30.35"   Gusts: 18mph
Location:  42.49°N, 89.04°W
Report Text: KJVL 271545Z 33011G16KT 10SM BKN021 M04/M08 A3035
Loading
Personal Weather Stations






























Interactive Weather Map New forecast layout! Learn more

10-Day Weather Forecast

Advertisements
Track Severe Weather on mobile